Time;durP1;ratioP1;P1;durP2;ratioP2;P2;SDS_P1;SDS_P2;PMS_P1;PMS_P2;Temp;Humidity;BMP_temperature;BMP_pressure;BME280_temperature;BME280_humidity;BME280_pressure;Samples;Min_cycle;Max_cycle;Signal;HPM_P1;HPM_P2
2021/01/10 00:00:48;;;;;;;21.10;9.90;;;-3.70;99.90;;;;;;5071899;28;20459;-52
2021/01/10 00:03:16;;;;;;;25.57;11.57;;;-3.60;99.90;;;;;;5071481;28;20500;-52
2021/01/10 00:05:43;;;;;;;22.73;10.03;;;-3.70;99.90;;;;;;5072155;28;20455;-51
2021/01/10 00:08:09;;;;;;;23.43;9.40;;;-3.90;99.90;;;;;;5070865;28;20481;-51
2021/01/10 00:10:36;;;;;;;20.47;10.37;;;-3.70;99.90;;;;;;5071676;28;20511;-51
2021/01/10 00:13:05;;;;;;;27.27;11.70;;;-3.70;99.90;;;;;;5071134;28;20533;-52
2021/01/10 00:15:32;;;;;;;20.17;9.93;;;-3.70;99.90;;;;;;5071436;28;20551;-52
2021/01/10 00:17:59;;;;;;;23.80;10.33;;;-3.80;99.90;;;;;;5071540;28;20562;-52
2021/01/10 00:20:27;;;;;;;22.97;10.37;;;-3.80;99.90;;;;;;5071442;28;20516;-51
2021/01/10 00:22:54;;;;;;;23.40;10.77;;;-4.00;99.90;;;;;;5071232;28;20451;-52
2021/01/10 00:25:21;;;;;;;28.33;11.90;;;-3.90;99.90;;;;;;5071431;28;20944;-51
2021/01/10 00:27:48;;;;;;;27.17;11.73;;;-3.90;99.90;;;;;;5069911;28;20543;-51
2021/01/10 00:30:17;;;;;;;24.20;11.23;;;-3.90;99.90;;;;;;5070809;28;20524;-51
2021/01/10 00:32:47;;;;;;;27.77;11.40;;;-3.80;99.90;;;;;;5069395;28;20461;-51
2021/01/10 00:35:13;;;;;;;24.53;11.57;;;-4.00;99.90;;;;;;5071042;28;20478;-51
2021/01/10 00:37:45;;;;;;;23.90;10.97;;;-3.90;99.90;;;;;;5061739;28;20484;-51
2021/01/10 00:40:12;;;;;;;31.50;11.90;;;-3.90;99.90;;;;;;5070128;28;20454;-51
2021/01/10 00:42:40;;;;;;;25.37;12.13;;;-3.90;99.90;;;;;;5071313;28;20455;-51
2021/01/10 00:45:08;;;;;;;32.40;11.47;;;-3.90;99.90;;;;;;5071033;28;20545;-52
2021/01/10 00:47:34;;;;;;;21.37;9.93;;;-3.80;99.90;;;;;;5071316;28;20524;-51
2021/01/10 00:50:01;;;;;;;24.00;10.70;;;-4.00;99.90;;;;;;5101087;22;20494;-54
2021/01/10 00:52:28;;;;;;;28.27;11.87;;;-4.20;99.90;;;;;;5090951;28;20442;-54
2021/01/10 00:54:56;;;;;;;28.87;12.63;;;-4.10;99.90;;;;;;5091512;28;21002;-54
2021/01/10 00:57:22;;;;;;;27.43;12.37;;;-4.10;99.90;;;;;;5091477;28;20457;-54
2021/01/10 00:59:49;;;;;;;32.43;13.27;;;-4.10;99.90;;;;;;5090498;28;20526;-54
2021/01/10 01:02:15;;;;;;;26.70;11.40;;;-4.00;99.90;;;;;;5091025;28;20476;-55
2021/01/10 01:04:42;;;;;;;24.40;10.93;;;-4.00;99.90;;;;;;5090836;28;20443;-54
2021/01/10 01:07:09;;;;;;;26.73;11.23;;;-4.00;99.90;;;;;;5090788;28;20458;-54
2021/01/10 01:09:35;;;;;;;25.30;11.23;;;-4.10;99.90;;;;;;5079408;28;20540;-54
2021/01/10 01:12:05;;;;;;;22.23;10.90;;;-4.10;99.90;;;;;;5088345;28;20454;-54
2021/01/10 01:14:32;;;;;;;22.60;10.50;;;-4.10;99.90;;;;;;5090690;28;20980;-54
2021/01/10 01:16:59;;;;;;;20.90;10.77;;;-4.10;99.90;;;;;;5090449;28;20868;-54
2021/01/10 01:19:25;;;;;;;24.33;10.53;;;-4.20;99.90;;;;;;5089861;28;20993;-54
2021/01/10 01:21:52;;;;;;;33.67;11.87;;;-4.30;99.90;;;;;;5091122;28;20442;-54
2021/01/10 01:24:19;;;;;;;29.87;12.30;;;-4.30;99.90;;;;;;5090210;28;20442;-54
2021/01/10 01:26:46;;;;;;;25.50;11.03;;;-4.30;99.90;;;;;;5090886;28;20511;-54
2021/01/10 01:29:14;;;;;;;21.47;10.50;;;-4.30;99.90;;;;;;5090033;28;20541;-54
2021/01/10 01:31:40;;;;;;;20.93;10.60;;;-4.30;99.90;;;;;;5090299;28;20450;-54
2021/01/10 01:34:07;;;;;;;27.07;10.07;;;-4.40;99.90;;;;;;5090583;28;20855;-54
2021/01/10 01:36:33;;;;;;;24.37;10.30;;;-4.50;99.90;;;;;;5090909;28;20453;-54
2021/01/10 01:39:05;;;;;;;29.20;10.10;;;-4.60;99.90;;;;;;5089962;28;20880;-54
2021/01/10 01:41:36;;;;;;;23.67;10.10;;;-4.60;99.90;;;;;;5090407;28;20456;-54
2021/01/10 01:44:06;;;;;;;22.17;9.90;;;-4.50;99.90;;;;;;5090815;28;20438;-55
2021/01/10 01:46:35;;;;;;;25.60;11.10;;;-4.40;99.90;;;;;;5090080;28;20457;-54
2021/01/10 01:49:04;;;;;;;31.83;12.47;;;-4.40;99.90;;;;;;5089933;28;20453;-54
2021/01/10 01:51:31;;;;;;;32.63;13.57;;;-4.60;99.90;;;;;;5090088;28;20477;-54
2021/01/10 01:53:59;;;;;;;29.30;13.57;;;-4.60;99.90;;;;;;5090526;28;20472;-54
2021/01/10 01:56:25;;;;;;;31.87;11.90;;;-4.60;99.90;;;;;;5090591;28;20476;-54
2021/01/10 01:59:03;;;;;;;27.67;11.30;;;-4.60;99.90;;;;;;5090275;28;20830;-54
2021/01/10 02:01:30;;;;;;;23.77;10.80;;;-4.50;99.90;;;;;;5090321;28;20449;-54
2021/01/10 02:04:05;;;;;;;27.03;11.77;;;-4.50;99.90;;;;;;5090322;28;20448;-54
2021/01/10 02:06:42;;;;;;;24.50;11.00;;;-4.60;99.90;;;;;;5089526;28;20445;-55
2021/01/10 02:09:10;;;;;;;22.90;10.40;;;-4.60;99.90;;;;;;5089621;28;20468;-54
2021/01/10 02:11:42;;;;;;;26.20;10.90;;;-4.80;99.90;;;;;;5090033;28;20543;-55
2021/01/10 02:14:13;;;;;;;17.80;10.00;;;-4.80;99.90;;;;;;5090349;28;20563;-54
2021/01/10 02:16:40;;;;;;;23.73;11.07;;;-4.80;99.90;;;;;;5090356;28;20445;-54
2021/01/10 02:19:17;;;;;;;26.30;11.40;;;-4.80;99.90;;;;;;5089776;28;20531;-54
2021/01/10 02:21:46;;;;;;;24.33;11.00;;;-4.80;99.90;;;;;;5088963;28;20449;-54
2021/01/10 02:24:14;;;;;;;24.90;11.53;;;-4.90;99.90;;;;;;5090023;28;20450;-54
2021/01/10 02:26:42;;;;;;;27.20;11.40;;;-4.90;99.90;;;;;;5089951;28;20461;-54
2021/01/10 02:29:10;;;;;;;26.27;12.20;;;-4.90;99.90;;;;;;5089640;28;20452;-54
2021/01/10 02:31:39;;;;;;;24.10;11.80;;;-5.00;99.90;;;;;;5090131;28;20904;-55
2021/01/10 02:34:10;;;;;;;24.10;10.70;;;-5.00;99.90;;;;;;5069743;28;20928;-54
2021/01/10 02:37:00;;;;;;;28.43;12.87;;;-4.90;99.90;;;;;;5074291;28;20517;-54
2021/01/10 02:39:40;;;;;;;32.03;12.83;;;-4.90;99.90;;;;;;5084076;28;20597;-54
2021/01/10 02:42:13;;;;;;;27.90;12.67;;;-4.90;99.90;;;;;;5093646;28;20450;-54
2021/01/10 02:44:47;;;;;;;30.47;12.97;;;-4.90;99.90;;;;;;5094132;28;20818;-54
2021/01/10 02:47:14;;;;;;;28.07;11.90;;;-4.70;99.90;;;;;;5093463;28;20950;-54
2021/01/10 02:49:40;;;;;;;25.40;11.67;;;-4.70;99.90;;;;;;5093538;28;20477;-54
2021/01/10 02:52:07;;;;;;;23.83;11.13;;;-4.60;99.90;;;;;;5092169;28;20445;-54
2021/01/10 02:54:34;;;;;;;24.40;11.03;;;-4.50;99.90;;;;;;5085467;28;20530;-54
2021/01/10 02:57:05;;;;;;;22.57;11.47;;;-4.50;99.90;;;;;;5093614;28;20441;-55
2021/01/10 02:59:36;;;;;;;22.30;11.20;;;-4.60;99.90;;;;;;5092962;28;20473;-54
2021/01/10 03:02:04;;;;;;;19.97;10.03;;;-4.50;99.90;;;;;;5093316;28;20445;-54
2021/01/10 03:04:31;;;;;;;20.17;10.10;;;-4.60;99.90;;;;;;5093352;28;21014;-54
2021/01/10 03:07:00;;;;;;;24.23;10.47;;;-4.60;99.90;;;;;;5093013;28;20939;-54
2021/01/10 03:09:26;;;;;;;28.27;10.47;;;-4.60;99.90;;;;;;5092283;28;20849;-54
2021/01/10 03:11:54;;;;;;;25.87;11.20;;;-4.70;99.90;;;;;;5093530;28;20453;-55
2021/01/10 03:14:21;;;;;;;28.33;11.60;;;-4.70;99.90;;;;;;5093231;28;20474;-55
2021/01/10 03:16:49;;;;;;;20.60;11.57;;;-4.70;99.90;;;;;;5092920;28;20454;-54
2021/01/10 03:19:16;;;;;;;26.53;12.17;;;-4.70;99.90;;;;;;5092734;28;21017;-54
2021/01/10 03:21:43;;;;;;;26.43;11.27;;;-4.70;99.90;;;;;;5093175;28;20449;-54
2021/01/10 03:24:09;;;;;;;22.60;10.90;;;-4.80;99.90;;;;;;5093213;28;20469;-54
2021/01/10 03:26:36;;;;;;;21.63;10.27;;;-4.80;99.90;;;;;;5092660;28;20473;-54
2021/01/10 03:29:03;;;;;;;25.17;9.70;;;-4.80;99.90;;;;;;5092355;28;21008;-54
2021/01/10 03:31:30;;;;;;;24.13;10.90;;;-4.80;99.90;;;;;;5092778;28;20450;-54
2021/01/10 03:33:56;;;;;;;22.80;10.70;;;-4.80;99.90;;;;;;5092429;28;20481;-54
2021/01/10 03:36:23;;;;;;;25.70;10.83;;;-4.80;99.90;;;;;;5092930;28;20454;-54
2021/01/10 03:38:49;;;;;;;23.10;11.10;;;-4.90;99.90;;;;;;5092457;28;20507;-54
2021/01/10 03:41:16;;;;;;;21.07;10.67;;;-4.90;99.90;;;;;;5092704;28;20843;-54
2021/01/10 03:43:42;;;;;;;28.83;11.70;;;-5.00;99.90;;;;;;5090542;28;20454;-55
2021/01/10 03:46:10;;;;;;;25.10;10.57;;;-4.90;99.90;;;;;;5092373;28;20457;-54
2021/01/10 03:48:36;;;;;;;26.23;10.63;;;-5.00;99.90;;;;;;5091971;28;20442;-54
2021/01/10 03:51:04;;;;;;;23.13;9.53;;;-4.90;99.90;;;;;;5092516;28;20862;-54
2021/01/10 03:53:30;;;;;;;24.50;10.57;;;-5.00;99.90;;;;;;5092254;28;20450;-54
2021/01/10 03:55:57;;;;;;;26.83;11.00;;;-5.00;99.90;;;;;;5092238;28;20833;-54
2021/01/10 03:58:23;;;;;;;20.50;10.63;;;-5.00;99.90;;;;;;5092182;28;20495;-54
2021/01/10 04:00:50;;;;;;;23.80;10.60;;;-5.00;99.90;;;;;;5085256;28;20467;-54
2021/01/10 04:03:17;;;;;;;22.30;10.47;;;-5.10;99.90;;;;;;5082052;28;20510;-54
2021/01/10 04:05:43;;;;;;;24.10;11.17;;;-5.10;99.90;;;;;;5091865;28;20479;-54
2021/01/10 04:08:10;;;;;;;27.40;11.73;;;-5.00;99.90;;;;;;5092072;28;20446;-54
2021/01/10 04:10:36;;;;;;;24.03;11.50;;;-5.10;99.90;;;;;;5074222;28;20995;-54
2021/01/10 04:13:03;;;;;;;24.70;11.03;;;-5.20;99.90;;;;;;5071713;28;20454;-55
2021/01/10 04:15:29;;;;;;;24.67;11.60;;;-5.20;99.90;;;;;;5091003;28;20535;-54
2021/01/10 04:17:56;;;;;;;22.87;11.77;;;-5.20;99.90;;;;;;5091562;28;21197;-54
2021/01/10 04:20:23;;;;;;;23.07;10.97;;;-5.20;99.90;;;;;;5091754;28;20461;-54
2021/01/10 04:22:50;;;;;;;19.80;10.73;;;-5.20;99.90;;;;;;5091314;28;20452;-54
2021/01/10 04:25:16;;;;;;;20.13;8.80;;;-5.10;99.90;;;;;;5091714;28;20468;-54
2021/01/10 04:27:43;;;;;;;22.67;9.63;;;-5.20;99.90;;;;;;5091701;28;20521;-54
2021/01/10 04:30:11;;;;;;;26.90;10.33;;;-5.30;99.90;;;;;;5091305;28;20472;-54
2021/01/10 04:32:37;;;;;;;25.10;10.20;;;-5.20;99.90;;;;;;5091380;28;20449;-54
2021/01/10 04:35:04;;;;;;;19.33;9.67;;;-5.20;99.90;;;;;;5091942;28;20488;-54
2021/01/10 04:37:32;;;;;;;28.00;10.57;;;-5.20;99.90;;;;;;5090852;28;20447;-54
2021/01/10 04:39:58;;;;;;;21.50;10.83;;;-5.10;99.90;;;;;;5091087;28;20481;-54
2021/01/10 04:42:26;;;;;;;25.47;10.03;;;-5.30;99.90;;;;;;5091289;28;20448;-54
2021/01/10 04:44:53;;;;;;;20.83;10.40;;;-5.40;99.90;;;;;;5091117;28;20446;-54
2021/01/10 04:47:20;;;;;;;24.17;11.03;;;-5.30;99.90;;;;;;5091005;28;20519;-54
2021/01/10 04:49:48;;;;;;;24.17;10.73;;;-5.20;99.90;;;;;;5091120;28;20478;-54
2021/01/10 04:52:20;;;;;;;20.30;10.53;;;-5.20;99.90;;;;;;5090733;28;20454;-55
2021/01/10 04:54:50;;;;;;;23.10;11.27;;;-5.10;99.90;;;;;;5090993;28;20483;-54
2021/01/10 04:57:19;;;;;;;20.90;10.17;;;-5.20;99.90;;;;;;5091367;28;20457;-54
2021/01/10 04:59:47;;;;;;;19.90;9.50;;;-5.20;99.90;;;;;;5090374;28;20474;-54
2021/01/10 05:02:17;;;;;;;19.73;10.00;;;-5.30;99.90;;;;;;5090762;28;21126;-54
2021/01/10 05:04:43;;;;;;;21.77;10.03;;;-5.60;99.90;;;;;;5090638;28;20450;-54
2021/01/10 05:07:10;;;;;;;19.47;9.63;;;-5.80;99.90;;;;;;5070628;28;20480;-54
2021/01/10 05:09:37;;;;;;;23.30;9.50;;;-5.60;99.90;;;;;;5078816;28;20476;-54
2021/01/10 05:12:05;;;;;;;20.50;9.20;;;-5.40;99.90;;;;;;5077384;28;20950;-54
2021/01/10 05:14:32;;;;;;;21.83;9.70;;;-5.40;99.90;;;;;;5071022;28;20860;-54
2021/01/10 05:16:59;;;;;;;23.20;10.53;;;-5.40;99.90;;;;;;5090401;28;20453;-54
2021/01/10 05:19:29;;;;;;;20.07;9.80;;;-5.40;99.90;;;;;;5090213;28;20572;-54
2021/01/10 05:21:56;;;;;;;20.70;9.50;;;-5.30;99.90;;;;;;5091024;28;20556;-54
2021/01/10 05:24:23;;;;;;;24.80;10.23;;;-5.40;99.90;;;;;;5090227;28;20452;-54
2021/01/10 05:26:49;;;;;;;20.23;9.77;;;-5.40;99.90;;;;;;5090894;28;20444;-54
2021/01/10 05:29:17;;;;;;;25.70;10.43;;;-5.60;99.90;;;;;;5090558;28;20514;-54
2021/01/10 05:31:45;;;;;;;19.93;9.73;;;-5.50;99.90;;;;;;5090461;28;20453;-54
2021/01/10 05:34:14;;;;;;;18.67;9.00;;;-5.50;99.90;;;;;;5090358;28;21005;-54
2021/01/10 05:36:42;;;;;;;27.17;11.20;;;-5.50;99.90;;;;;;5091080;28;20478;-54
2021/01/10 05:39:19;;;;;;;23.10;11.03;;;-5.50;99.90;;;;;;5077512;28;20457;-54
2021/01/10 05:41:54;;;;;;;22.43;10.10;;;-5.40;99.90;;;;;;5070547;28;20453;-54
2021/01/10 05:44:22;;;;;;;23.10;10.97;;;-5.40;99.90;;;;;;5080303;28;20503;-54
2021/01/10 05:46:49;;;;;;;22.83;10.30;;;-5.50;99.90;;;;;;5089556;28;20445;-54
2021/01/10 05:49:22;;;;;;;19.30;9.73;;;-5.50;99.90;;;;;;5081849;28;20447;-54
2021/01/10 05:51:49;;;;;;;22.00;9.90;;;-5.40;99.90;;;;;;5090071;28;20450;-54
2021/01/10 05:54:35;;;;;;;19.90;10.23;;;-5.50;99.90;;;;;;5076968;28;20507;-54
2021/01/10 05:57:03;;;;;;;22.77;10.60;;;-5.60;99.90;;;;;;5070331;28;20445;-54
2021/01/10 05:59:34;;;;;;;25.90;10.50;;;-5.50;99.90;;;;;;5071053;28;20850;-54
2021/01/10 06:02:03;;;;;;;20.97;9.80;;;-5.50;99.90;;;;;;5071290;28;20460;-54
2021/01/10 06:04:31;;;;;;;21.47;10.40;;;-5.50;99.90;;;;;;5072007;28;21037;-54
2021/01/10 06:06:59;;;;;;;25.10;11.50;;;-5.50;99.90;;;;;;5082741;28;20587;-54
2021/01/10 06:09:26;;;;;;;38.70;15.50;;;-5.50;99.90;;;;;;5092729;28;20475;-54
2021/01/10 06:11:53;;;;;;;36.20;14.13;;;-5.50;99.90;;;;;;5096426;28;20444;-54
2021/01/10 06:14:22;;;;;;;27.20;13.17;;;-5.50;99.90;;;;;;5108733;28;20509;-54
2021/01/10 06:16:58;;;;;;;25.40;11.30;;;-5.50;99.90;;;;;;5117355;28;20725;-54
2021/01/10 06:19:29;;;;;;;32.13;12.80;;;-5.40;99.90;;;;;;5117391;28;20475;-54
2021/01/10 06:21:59;;;;;;;25.77;12.07;;;-5.50;99.90;;;;;;5116417;28;20648;-54
2021/01/10 06:24:32;;;;;;;34.00;14.47;;;-5.50;99.90;;;;;;5116747;28;20451;-54
2021/01/10 06:27:10;;;;;;;35.30;14.87;;;-5.50;99.90;;;;;;5114898;28;20440;-54
2021/01/10 06:29:40;;;;;;;36.00;15.90;;;-5.50;99.90;;;;;;5096858;28;20465;-54
2021/01/10 06:32:12;;;;;;;29.00;12.90;;;-5.50;99.90;;;;;;5081541;28;20457;-54
2021/01/10 06:34:40;;;;;;;33.47;13.97;;;-5.50;99.90;;;;;;5093131;28;20480;-54
2021/01/10 06:37:09;;;;;;;27.77;13.07;;;-5.50;99.90;;;;;;5094192;28;20516;-55
2021/01/10 06:39:40;;;;;;;24.80;12.67;;;-5.50;99.90;;;;;;5093707;28;20464;-54
2021/01/10 06:42:14;;;;;;;26.60;11.10;;;-5.40;99.90;;;;;;5093795;28;20540;-54
2021/01/10 06:44:44;;;;;;;21.27;10.93;;;-5.50;99.90;;;;;;5093859;28;20451;-55
2021/01/10 06:47:20;;;;;;;33.23;11.97;;;-5.50;99.90;;;;;;5093265;28;20456;-54
2021/01/10 06:49:47;;;;;;;30.27;11.53;;;-5.80;99.90;;;;;;5092623;28;20479;-54
2021/01/10 06:52:14;;;;;;;31.73;14.20;;;-5.80;99.90;;;;;;5093394;28;20461;-54
2021/01/10 06:54:42;;;;;;;35.33;13.70;;;-5.70;99.90;;;;;;5093611;28;20545;-54
2021/01/10 06:57:09;;;;;;;25.13;12.90;;;-5.60;99.90;;;;;;5093620;28;20825;-54
2021/01/10 06:59:59;;;;;;;24.03;10.60;;;-5.70;99.90;;;;;;5093270;28;20476;-54
2021/01/10 07:02:27;;;;;;;26.17;11.20;;;-5.90;99.90;;;;;;5092911;28;21186;-54
2021/01/10 07:05:01;;;;;;;28.07;12.57;;;-5.90;99.90;;;;;;5078944;28;20447;-54
2021/01/10 07:07:38;;;;;;;19.67;10.73;;;-6.10;99.90;;;;;;5079440;28;20458;-54
2021/01/10 07:10:08;;;;;;;22.23;11.03;;;-6.00;99.90;;;;;;5093153;28;20537;-54
2021/01/10 07:12:34;;;;;;;25.53;11.17;;;-5.90;99.90;;;;;;5093238;28;20949;-54
2021/01/10 07:15:24;;;;;;;29.20;11.87;;;-5.80;99.90;;;;;;5093355;28;20864;-54
2021/01/10 07:20:33;;;;;;;23.77;11.17;;;-5.70;99.90;;;;;;5068609;28;20983;-51
2021/01/10 07:23:30;;;;;;;25.30;11.50;;;-5.90;99.90;;;;;;5072095;28;20460;-51
2021/01/10 07:25:58;;;;;;;23.27;11.27;;;-5.80;99.90;;;;;;5072686;28;20448;-51
2021/01/10 07:28:42;;;;;;;26.80;11.13;;;-5.80;99.90;;;;;;5073022;28;20463;-51
2021/01/10 07:31:19;;;;;;;31.03;12.23;;;-5.80;99.90;;;;;;5062754;28;20458;-51
2021/01/10 07:33:48;;;;;;;26.77;13.20;;;-5.70;99.90;;;;;;5052691;28;20457;-51
2021/01/10 07:36:15;;;;;;;28.93;13.50;;;-5.60;99.90;;;;;;5053019;28;20458;-51
2021/01/10 07:38:43;;;;;;;92.43;39.10;;;-5.70;99.90;;;;;;5071856;28;20413;-51
2021/01/10 07:41:28;;;;;;;40.63;18.90;;;-5.60;99.90;;;;;;5052418;28;20587;-51
2021/01/10 07:43:55;;;;;;;32.53;13.83;;;-5.50;99.90;;;;;;5052280;28;20462;-51
2021/01/10 07:46:50;;;;;;;30.27;13.10;;;-5.50;99.90;;;;;;5067620;28;20778;-51
2021/01/10 07:49:19;;;;;;;28.20;13.80;;;-5.50;99.90;;;;;;5071242;28;20477;-52
2021/01/10 07:51:47;;;;;;;27.70;13.50;;;-5.40;99.90;;;;;;5071521;28;20490;-51
2021/01/10 07:54:14;;;;;;;29.10;14.13;;;-5.50;99.90;;;;;;5071513;28;20486;-52
2021/01/10 07:56:40;;;;;;;30.67;14.00;;;-5.30;99.90;;;;;;5071729;28;20453;-51
2021/01/10 07:59:16;;;;;;;32.90;15.57;;;-5.30;99.90;;;;;;5070204;28;20523;-52
2021/01/10 08:01:50;;;;;;;105.27;37.17;;;-5.30;99.90;;;;;;5051560;28;20451;-51
2021/01/10 08:04:34;;;;;;;115.40;37.77;;;-5.30;99.90;;;;;;5060160;28;20979;-51
2021/01/10 08:07:03;;;;;;;108.13;36.27;;;-5.20;99.90;;;;;;5071470;28;20449;-51
2021/01/10 08:09:32;;;;;;;52.53;21.53;;;-5.00;99.90;;;;;;5071171;28;20989;-51
2021/01/10 08:11:58;;;;;;;37.20;15.77;;;-4.90;99.90;;;;;;5070953;28;20876;-50
2021/01/10 08:14:25;;;;;;;50.87;19.80;;;-4.80;99.90;;;;;;5052551;28;20482;-51
2021/01/10 08:16:51;;;;;;;45.20;18.10;;;-4.70;99.90;;;;;;5063114;28;20453;-51
2021/01/10 08:19:18;;;;;;;31.40;14.97;;;-4.60;99.90;;;;;;5070778;28;21018;-51
2021/01/10 08:21:45;;;;;;;30.67;15.40;;;-4.50;99.90;;;;;;5071333;28;20450;-51
2021/01/10 08:24:14;;;;;;;40.83;15.07;;;-4.20;99.90;;;;;;5071163;28;20446;-51
2021/01/10 08:26:43;;;;;;;31.20;13.87;;;-4.10;99.90;;;;;;5069955;28;20545;-51
2021/01/10 08:29:10;;;;;;;29.67;15.07;;;-4.00;99.90;;;;;;5071166;28;20466;-51
2021/01/10 08:31:38;;;;;;;34.73;15.50;;;-3.90;99.90;;;;;;5070916;28;20454;-51
2021/01/10 08:34:06;;;;;;;30.90;15.20;;;-3.80;99.90;;;;;;5069881;28;20897;-51
2021/01/10 08:36:33;;;;;;;32.53;15.07;;;-3.70;99.90;;;;;;5071046;28;20474;-52
2021/01/10 08:39:03;;;;;;;30.60;14.10;;;-3.60;99.90;;;;;;5070663;28;21040;-52
2021/01/10 08:41:32;;;;;;;31.03;15.20;;;-3.40;99.90;;;;;;5069996;28;20458;-52
2021/01/10 08:44:01;;;;;;;34.23;15.40;;;-3.10;99.90;;;;;;5067103;28;20447;-52
2021/01/10 08:46:28;;;;;;;31.53;15.73;;;-2.90;99.90;;;;;;5070785;28;20801;-52
2021/01/10 08:48:55;;;;;;;33.77;16.10;;;-2.60;99.90;;;;;;5069231;28;20470;-52
2021/01/10 08:51:32;;;;;;;33.40;15.90;;;-2.30;99.90;;;;;;5050897;28;20451;-52
2021/01/10 08:53:59;;;;;;;36.13;16.07;;;-1.90;99.90;;;;;;5051110;28;20450;-52
2021/01/10 08:56:26;;;;;;;32.57;16.83;;;-1.50;99.90;;;;;;5067578;28;20474;-53
2021/01/10 08:58:57;;;;;;;28.23;14.80;;;-1.10;99.90;;;;;;5070379;28;20472;-52
2021/01/10 09:01:25;;;;;;;27.37;14.13;;;-1.00;99.90;;;;;;5062823;28;20444;-52
2021/01/10 09:04:02;;;;;;;27.53;13.47;;;-0.90;99.90;;;;;;5050471;28;20456;-52
2021/01/10 09:06:50;;;;;;;32.17;14.40;;;-0.70;99.90;;;;;;5050431;28;20464;-52
2021/01/10 09:09:26;;;;;;;20.93;10.70;;;-0.10;99.90;;;;;;5057265;28;20479;-52
2021/01/10 09:12:00;;;;;;;19.63;11.10;;;0.20;99.90;;;;;;5071077;28;20448;-52
2021/01/10 09:14:33;;;;;;;22.90;11.57;;;0.30;99.90;;;;;;5070483;28;21018;-52
2021/01/10 09:17:01;;;;;;;27.63;11.90;;;0.20;99.90;;;;;;5070881;28;21028;-52
2021/01/10 09:19:32;;;;;;;20.03;10.30;;;-0.10;99.90;;;;;;5069969;28;20480;-52
2021/01/10 09:21:59;;;;;;;22.47;11.03;;;-0.20;99.90;;;;;;5070376;28;20445;-52
2021/01/10 09:24:31;;;;;;;16.87;9.33;;;0.00;99.90;;;;;;5054639;28;20979;-51
2021/01/10 09:27:09;;;;;;;19.40;9.17;;;-0.30;99.90;;;;;;5065549;28;20953;-52
2021/01/10 09:29:37;;;;;;;17.63;8.97;;;-0.10;99.90;;;;;;5065680;28;20460;-52
2021/01/10 09:32:05;;;;;;;15.17;8.70;;;0.10;99.90;;;;;;5059242;28;20959;-52
2021/01/10 09:34:31;;;;;;;17.20;9.40;;;-0.10;99.90;;;;;;5070400;28;20481;-52
2021/01/10 09:37:03;;;;;;;14.67;7.97;;;-0.10;99.90;;;;;;5070106;28;20930;-52
2021/01/10 09:39:43;;;;;;;13.73;8.27;;;0.10;99.90;;;;;;5064171;28;20470;-51
2021/01/10 09:42:10;;;;;;;18.57;8.37;;;-0.30;99.90;;;;;;5050588;28;20446;-52
2021/01/10 09:44:38;;;;;;;16.93;9.70;;;-0.70;99.90;;;;;;5069462;28;20964;-52
2021/01/10 09:47:05;;;;;;;16.87;9.00;;;-0.70;99.90;;;;;;5074302;28;20448;-52
2021/01/10 09:49:34;;;;;;;21.20;9.53;;;-0.70;99.90;;;;;;5074265;28;20468;-52
2021/01/10 09:52:02;;;;;;;21.40;9.77;;;-0.20;99.90;;;;;;5074642;28;20448;-52
2021/01/10 09:54:30;;;;;;;15.80;8.80;;;-0.10;99.90;;;;;;5074581;28;20484;-52
2021/01/10 09:56:57;;;;;;;11.17;6.70;;;0.60;99.90;;;;;;5059985;28;20993;-52
2021/01/10 09:59:41;;;;;;;16.27;7.83;;;1.30;99.90;;;;;;5059697;28;20504;-52
2021/01/10 10:02:10;;;;;;;16.80;8.13;;;2.10;99.90;;;;;;5070475;28;20449;-52
2021/01/10 10:04:37;;;;;;;15.53;8.80;;;2.50;99.90;;;;;;5054082;28;20447;-52
2021/01/10 10:07:04;;;;;;;14.30;7.33;;;2.30;99.90;;;;;;5061307;28;20445;-52
2021/01/10 10:09:51;;;;;;;13.87;7.90;;;1.70;99.90;;;;;;5074158;28;20469;-52
2021/01/10 10:12:19;;;;;;;15.20;7.23;;;1.10;99.90;;;;;;5074224;28;20481;-52
2021/01/10 10:14:58;;;;;;;18.47;8.90;;;1.00;99.90;;;;;;5074184;28;20883;-52
2021/01/10 10:17:28;;;;;;;15.20;8.63;;;1.00;99.90;;;;;;5074255;28;20452;-52
2021/01/10 10:19:55;;;;;;;16.67;8.67;;;1.20;99.90;;;;;;5060927;28;20477;-52
2021/01/10 10:22:27;;;;;;;14.47;8.17;;;1.40;99.90;;;;;;5053896;28;20509;-52
2021/01/10 10:24:54;;;;;;;13.30;7.20;;;1.60;99.90;;;;;;5053981;28;20523;-52
2021/01/10 10:27:21;;;;;;;14.00;7.90;;;1.70;99.90;;;;;;5054036;28;20980;-52
2021/01/10 10:29:48;;;;;;;14.10;8.13;;;2.00;99.90;;;;;;5054947;28;20549;-52
2021/01/10 10:32:15;;;;;;;16.73;8.33;;;2.10;99.90;;;;;;5054592;28;21052;-52
2021/01/10 10:34:42;;;;;;;17.50;8.90;;;1.90;99.90;;;;;;5069242;28;20489;-53
2021/01/10 10:37:10;;;;;;;14.67;9.10;;;2.30;99.90;;;;;;5068531;28;20465;-52
2021/01/10 10:39:37;;;;;;;16.90;8.63;;;2.20;99.90;;;;;;5071086;28;20482;-52
2021/01/10 10:42:04;;;;;;;13.20;7.97;;;2.50;99.90;;;;;;5070811;28;20455;-53
2021/01/10 10:44:31;;;;;;;12.60;7.60;;;3.00;99.90;;;;;;5068308;28;20470;-52
2021/01/10 10:46:58;;;;;;;17.50;9.00;;;2.80;99.90;;;;;;5055169;28;20496;-52
2021/01/10 10:49:25;;;;;;;11.97;7.30;;;2.90;99.90;;;;;;5068697;28;20471;-52
2021/01/10 10:51:52;;;;;;;18.53;8.97;;;2.90;99.90;;;;;;5072622;28;20460;-52
2021/01/10 10:54:18;;;;;;;14.10;8.10;;;2.20;99.90;;;;;;5071851;28;20457;-52
2021/01/10 10:56:46;;;;;;;14.27;8.40;;;1.50;99.90;;;;;;5067528;28;20844;-52
2021/01/10 10:59:15;;;;;;;17.73;9.23;;;1.10;99.90;;;;;;5069500;28;20634;-52
2021/01/10 11:01:43;;;;;;;15.93;8.70;;;0.80;99.90;;;;;;5072834;28;20840;-52
2021/01/10 11:04:13;;;;;;;16.70;8.80;;;1.00;99.90;;;;;;5053320;28;20442;-52
2021/01/10 11:06:40;;;;;;;16.50;8.33;;;1.20;99.90;;;;;;5056424;28;20454;-52
2021/01/10 11:09:09;;;;;;;15.00;8.90;;;1.30;99.90;;;;;;5068990;28;20539;-52
2021/01/10 11:11:41;;;;;;;18.37;9.20;;;1.40;99.90;;;;;;5067315;28;20454;-52
2021/01/10 11:14:12;;;;;;;17.20;8.57;;;1.40;99.90;;;;;;5066921;28;20486;-52
2021/01/10 11:16:40;;;;;;;19.70;9.43;;;1.40;99.90;;;;;;5061593;28;20454;-52
2021/01/10 11:19:08;;;;;;;15.73;8.77;;;1.40;99.90;;;;;;5072304;28;20482;-52
2021/01/10 11:21:36;;;;;;;19.17;9.97;;;1.60;99.90;;;;;;5068198;28;20454;-52
2021/01/10 11:24:08;;;;;;;21.83;9.93;;;1.50;99.90;;;;;;5071994;28;20454;-52
2021/01/10 11:26:37;;;;;;;20.80;10.33;;;1.50;99.90;;;;;;5070572;28;20458;-52
2021/01/10 11:29:04;;;;;;;17.83;9.70;;;1.10;99.90;;;;;;5067490;28;21021;-52
2021/01/10 11:31:32;;;;;;;14.87;8.57;;;1.30;99.90;;;;;;5072061;28;20458;-52
2021/01/10 11:33:59;;;;;;;15.10;9.03;;;1.50;99.90;;;;;;5071931;28;20454;-52
2021/01/10 11:36:26;;;;;;;18.03;9.37;;;1.60;99.90;;;;;;5069018;28;20492;-52
2021/01/10 11:38:53;;;;;;;18.37;9.10;;;1.60;99.90;;;;;;5070647;28;20473;-56
2021/01/10 11:41:22;;;;;;;20.90;9.47;;;1.10;99.90;;;;;;5062225;28;20452;-52
2021/01/10 11:43:49;;;;;;;17.77;9.13;;;1.30;99.90;;;;;;5072245;28;20457;-52
2021/01/10 11:46:15;;;;;;;18.93;9.23;;;1.40;99.90;;;;;;5072050;28;20453;-52
2021/01/10 11:48:43;;;;;;;19.00;9.00;;;1.40;99.90;;;;;;5071696;28;20987;-52
2021/01/10 11:51:11;;;;;;;17.23;8.90;;;1.40;99.90;;;;;;5071313;28;20453;-52
2021/01/10 11:53:38;;;;;;;18.63;10.10;;;1.60;99.90;;;;;;5071782;28;20479;-53
2021/01/10 11:56:05;;;;;;;19.13;10.60;;;1.60;99.90;;;;;;5071160;28;20925;-52
2021/01/10 11:58:33;;;;;;;23.43;10.47;;;1.50;99.90;;;;;;5070478;28;20512;-52
2021/01/10 12:01:00;;;;;;;18.53;10.10;;;1.60;99.90;;;;;;5070431;28;20446;-52
2021/01/10 12:03:27;;;;;;;15.80;9.20;;;1.60;99.90;;;;;;5070846;28;20467;-52
2021/01/10 12:05:55;;;;;;;18.20;9.93;;;1.30;99.90;;;;;;5068873;28;20580;-53
2021/01/10 12:08:23;;;;;;;23.63;10.43;;;1.30;99.90;;;;;;5069564;28;21070;-52
2021/01/10 12:10:49;;;;;;;20.90;10.57;;;1.40;99.90;;;;;;5071228;28;20453;-53
2021/01/10 12:13:16;;;;;;;16.93;9.93;;;1.20;99.90;;;;;;5071662;28;20537;-52
2021/01/10 12:15:45;;;;;;;17.43;10.17;;;1.30;99.90;;;;;;5071310;28;20860;-52
2021/01/10 12:18:12;;;;;;;21.17;10.07;;;1.20;99.90;;;;;;5071609;28;20474;-52
2021/01/10 12:20:39;;;;;;;15.57;9.37;;;1.00;99.90;;;;;;5071274;28;20499;-52
2021/01/10 12:23:06;;;;;;;17.50;9.03;;;0.90;99.90;;;;;;5071860;28;20484;-52
2021/01/10 12:25:32;;;;;;;18.07;8.73;;;1.00;99.90;;;;;;5071607;28;20825;-52
2021/01/10 12:27:59;;;;;;;21.00;9.20;;;1.20;99.90;;;;;;5070991;28;20457;-52
2021/01/10 12:30:26;;;;;;;18.60;9.57;;;1.30;99.90;;;;;;5070388;28;20469;-52
2021/01/10 12:32:54;;;;;;;15.77;8.77;;;1.00;99.90;;;;;;5071090;28;20568;-52
2021/01/10 12:35:21;;;;;;;18.90;9.80;;;0.70;99.90;;;;;;5067031;28;20849;-52
2021/01/10 12:37:49;;;;;;;16.87;8.43;;;0.90;99.90;;;;;;5056507;28;20454;-52
2021/01/10 12:40:17;;;;;;;13.90;8.60;;;0.90;99.90;;;;;;5051623;28;20466;-52
2021/01/10 12:42:44;;;;;;;15.50;7.93;;;1.00;99.90;;;;;;5070559;28;20449;-52
2021/01/10 12:45:12;;;;;;;14.10;7.07;;;0.80;99.90;;;;;;5069231;28;20462;-52